sensor_id;sensor_type;location;lat;lon;timestamp;P1;durP1;ratioP1;P2;durP2;ratioP2
16462;SDS011;8342;42.736;23.292;2022-08-21T00:02:26;22.90;;;12.03;;
16462;SDS011;8342;42.736;23.292;2022-08-21T00:04:53;22.00;;;13.57;;
16462;SDS011;8342;42.736;23.292;2022-08-21T00:07:21;20.33;;;13.47;;
16462;SDS011;8342;42.736;23.292;2022-08-21T00:09:48;18.93;;;13.43;;
16462;SDS011;8342;42.736;23.292;2022-08-21T00:12:16;20.70;;;14.20;;
16462;SDS011;8342;42.736;23.292;2022-08-21T00:14:43;20.57;;;14.37;;
16462;SDS011;8342;42.736;23.292;2022-08-21T00:17:10;21.93;;;13.97;;
16462;SDS011;8342;42.736;23.292;2022-08-21T00:19:37;24.80;;;13.70;;
16462;SDS011;8342;42.736;23.292;2022-08-21T00:22:04;28.13;;;15.30;;
16462;SDS011;8342;42.736;23.292;2022-08-21T00:24:31;21.93;;;14.90;;
16462;SDS011;8342;42.736;23.292;2022-08-21T00:26:57;19.37;;;13.53;;
16462;SDS011;8342;42.736;23.292;2022-08-21T00:29:26;20.40;;;12.93;;
16462;SDS011;8342;42.736;23.292;2022-08-21T00:31:53;20.40;;;12.60;;
16462;SDS011;8342;42.736;23.292;2022-08-21T00:34:20;19.10;;;12.60;;
16462;SDS011;8342;42.736;23.292;2022-08-21T00:36:47;20.77;;;13.73;;
16462;SDS011;8342;42.736;23.292;2022-08-21T00:39:13;19.90;;;12.90;;
16462;SDS011;8342;42.736;23.292;2022-08-21T00:41:41;19.83;;;13.73;;
16462;SDS011;8342;42.736;23.292;2022-08-21T00:44:09;21.57;;;14.33;;
16462;SDS011;8342;42.736;23.292;2022-08-21T00:46:40;20.33;;;13.97;;
16462;SDS011;8342;42.736;23.292;2022-08-21T00:49:08;19.60;;;12.93;;
16462;SDS011;8342;42.736;23.292;2022-08-21T00:51:36;23.00;;;14.70;;
16462;SDS011;8342;42.736;23.292;2022-08-21T00:54:05;21.50;;;13.37;;
16462;SDS011;8342;42.736;23.292;2022-08-21T00:56:32;23.47;;;14.67;;
16462;SDS011;8342;42.736;23.292;2022-08-21T00:58:59;22.77;;;14.00;;
16462;SDS011;8342;42.736;23.292;2022-08-21T01:01:27;21.13;;;14.30;;
16462;SDS011;8342;42.736;23.292;2022-08-21T01:03:55;19.77;;;13.60;;
16462;SDS011;8342;42.736;23.292;2022-08-21T01:06:22;20.80;;;12.40;;
16462;SDS011;8342;42.736;23.292;2022-08-21T01:08:48;18.93;;;13.17;;
16462;SDS011;8342;42.736;23.292;2022-08-21T01:11:15;20.50;;;12.57;;
16462;SDS011;8342;42.736;23.292;2022-08-21T01:13:42;21.20;;;10.83;;
16462;SDS011;8342;42.736;23.292;2022-08-21T01:16:11;18.27;;;11.23;;
16462;SDS011;8342;42.736;23.292;2022-08-21T01:18:40;16.57;;;10.90;;
16462;SDS011;8342;42.736;23.292;2022-08-21T01:21:11;14.03;;;10.57;;
16462;SDS011;8342;42.736;23.292;2022-08-21T01:23:40;13.50;;;9.10;;
16462;SDS011;8342;42.736;23.292;2022-08-21T01:26:08;12.27;;;8.80;;
16462;SDS011;8342;42.736;23.292;2022-08-21T01:28:37;15.63;;;9.33;;
16462;SDS011;8342;42.736;23.292;2022-08-21T01:31:07;13.27;;;8.80;;
16462;SDS011;8342;42.736;23.292;2022-08-21T01:33:36;14.17;;;10.47;;
16462;SDS011;8342;42.736;23.292;2022-08-21T01:36:03;10.07;;;8.53;;
16462;SDS011;8342;42.736;23.292;2022-08-21T01:38:32;11.03;;;8.87;;
16462;SDS011;8342;42.736;23.292;2022-08-21T01:40:59;10.30;;;8.87;;
16462;SDS011;8342;42.736;23.292;2022-08-21T01:43:26;12.40;;;9.53;;
16462;SDS011;8342;42.736;23.292;2022-08-21T01:45:53;12.17;;;9.07;;
16462;SDS011;8342;42.736;23.292;2022-08-21T01:48:19;10.63;;;7.93;;
16462;SDS011;8342;42.736;23.292;2022-08-21T01:50:46;14.47;;;8.73;;
16462;SDS011;8342;42.736;23.292;2022-08-21T01:53:13;13.53;;;8.63;;
16462;SDS011;8342;42.736;23.292;2022-08-21T01:55:41;9.50;;;8.50;;
16462;SDS011;8342;42.736;23.292;2022-08-21T01:58:08;10.90;;;8.97;;
16462;SDS011;8342;42.736;23.292;2022-08-21T02:00:35;12.70;;;8.83;;
16462;SDS011;8342;42.736;23.292;2022-08-21T02:03:02;10.70;;;8.30;;
16462;SDS011;8342;42.736;23.292;2022-08-21T02:05:29;16.33;;;9.67;;
16462;SDS011;8342;42.736;23.292;2022-08-21T02:07:56;16.00;;;10.03;;
16462;SDS011;8342;42.736;23.292;2022-08-21T02:10:24;17.20;;;10.67;;
16462;SDS011;8342;42.736;23.292;2022-08-21T02:12:55;16.70;;;10.20;;
16462;SDS011;8342;42.736;23.292;2022-08-21T02:15:23;13.23;;;10.60;;
16462;SDS011;8342;42.736;23.292;2022-08-21T02:17:52;14.97;;;10.70;;
16462;SDS011;8342;42.736;23.292;2022-08-21T02:20:21;16.17;;;11.00;;
16462;SDS011;8342;42.736;23.292;2022-08-21T02:22:50;17.00;;;11.07;;
16462;SDS011;8342;42.736;23.292;2022-08-21T02:25:17;16.90;;;11.37;;
16462;SDS011;8342;42.736;23.292;2022-08-21T02:27:45;18.90;;;12.27;;
16462;SDS011;8342;42.736;23.292;2022-08-21T02:30:15;18.30;;;11.80;;
16462;SDS011;8342;42.736;23.292;2022-08-21T02:32:43;14.13;;;11.03;;
16462;SDS011;8342;42.736;23.292;2022-08-21T02:35:10;19.10;;;11.83;;
16462;SDS011;8342;42.736;23.292;2022-08-21T02:37:44;19.63;;;11.83;;
16462;SDS011;8342;42.736;23.292;2022-08-21T02:40:12;13.70;;;10.70;;
16462;SDS011;8342;42.736;23.292;2022-08-21T02:42:39;19.43;;;11.97;;
16462;SDS011;8342;42.736;23.292;2022-08-21T02:45:06;15.87;;;11.17;;
16462;SDS011;8342;42.736;23.292;2022-08-21T02:47:35;18.03;;;11.83;;
16462;SDS011;8342;42.736;23.292;2022-08-21T02:50:04;18.90;;;11.23;;
16462;SDS011;8342;42.736;23.292;2022-08-21T02:52:32;14.30;;;11.20;;
16462;SDS011;8342;42.736;23.292;2022-08-21T02:54:59;20.47;;;11.93;;
16462;SDS011;8342;42.736;23.292;2022-08-21T02:57:26;19.93;;;12.30;;
16462;SDS011;8342;42.736;23.292;2022-08-21T02:59:53;18.70;;;12.23;;
16462;SDS011;8342;42.736;23.292;2022-08-21T03:02:20;14.53;;;10.43;;
16462;SDS011;8342;42.736;23.292;2022-08-21T03:04:49;15.43;;;11.50;;
16462;SDS011;8342;42.736;23.292;2022-08-21T03:07:15;14.47;;;10.77;;
16462;SDS011;8342;42.736;23.292;2022-08-21T03:09:42;12.33;;;10.00;;
16462;SDS011;8342;42.736;23.292;2022-08-21T03:12:09;15.87;;;11.50;;
16462;SDS011;8342;42.736;23.292;2022-08-21T03:14:36;17.43;;;10.57;;
16462;SDS011;8342;42.736;23.292;2022-08-21T03:17:03;14.83;;;11.17;;
16462;SDS011;8342;42.736;23.292;2022-08-21T03:19:30;14.70;;;11.20;;
16462;SDS011;8342;42.736;23.292;2022-08-21T03:21:58;16.10;;;9.67;;
16462;SDS011;8342;42.736;23.292;2022-08-21T03:24:25;12.60;;;9.20;;
16462;SDS011;8342;42.736;23.292;2022-08-21T03:26:52;14.70;;;10.50;;
16462;SDS011;8342;42.736;23.292;2022-08-21T03:29:19;18.63;;;10.50;;
16462;SDS011;8342;42.736;23.292;2022-08-21T03:31:46;13.70;;;10.50;;
16462;SDS011;8342;42.736;23.292;2022-08-21T03:34:12;15.10;;;10.80;;
16462;SDS011;8342;42.736;23.292;2022-08-21T03:36:39;19.20;;;10.10;;
16462;SDS011;8342;42.736;23.292;2022-08-21T03:39:08;16.37;;;11.40;;
16462;SDS011;8342;42.736;23.292;2022-08-21T03:41:34;14.43;;;11.10;;
16462;SDS011;8342;42.736;23.292;2022-08-21T03:44:01;15.93;;;12.37;;
16462;SDS011;8342;42.736;23.292;2022-08-21T03:46:28;14.60;;;11.50;;
16462;SDS011;8342;42.736;23.292;2022-08-21T03:48:55;18.97;;;12.77;;
16462;SDS011;8342;42.736;23.292;2022-08-21T03:51:22;19.33;;;14.60;;
16462;SDS011;8342;42.736;23.292;2022-08-21T03:53:49;19.40;;;12.43;;
16462;SDS011;8342;42.736;23.292;2022-08-21T03:56:17;18.47;;;13.57;;
16462;SDS011;8342;42.736;23.292;2022-08-21T03:58:44;20.33;;;13.17;;
16462;SDS011;8342;42.736;23.292;2022-08-21T04:01:11;18.77;;;13.90;;
16462;SDS011;8342;42.736;23.292;2022-08-21T04:03:37;21.40;;;14.77;;
16462;SDS011;8342;42.736;23.292;2022-08-21T04:06:05;20.73;;;14.43;;
16462;SDS011;8342;42.736;23.292;2022-08-21T04:08:32;15.93;;;13.03;;
16462;SDS011;8342;42.736;23.292;2022-08-21T04:11:00;20.83;;;14.23;;
16462;SDS011;8342;42.736;23.292;2022-08-21T04:13:28;17.07;;;13.73;;
16462;SDS011;8342;42.736;23.292;2022-08-21T04:15:55;19.03;;;13.83;;
16462;SDS011;8342;42.736;23.292;2022-08-21T04:18:23;20.83;;;13.53;;
16462;SDS011;8342;42.736;23.292;2022-08-21T04:20:50;20.27;;;13.73;;
16462;SDS011;8342;42.736;23.292;2022-08-21T04:23:18;26.03;;;15.30;;
16462;SDS011;8342;42.736;23.292;2022-08-21T04:25:45;23.83;;;15.77;;
16462;SDS011;8342;42.736;23.292;2022-08-21T04:28:12;25.53;;;15.53;;
16462;SDS011;8342;42.736;23.292;2022-08-21T04:30:40;21.20;;;15.43;;
16462;SDS011;8342;42.736;23.292;2022-08-21T04:33:07;25.17;;;15.83;;
16462;SDS011;8342;42.736;23.292;2022-08-21T04:35:34;22.43;;;16.07;;
16462;SDS011;8342;42.736;23.292;2022-08-21T04:38:01;22.50;;;16.33;;
16462;SDS011;8342;42.736;23.292;2022-08-21T04:40:28;23.57;;;17.93;;
16462;SDS011;8342;42.736;23.292;2022-08-21T04:42:56;27.97;;;19.63;;
16462;SDS011;8342;42.736;23.292;2022-08-21T04:45:27;31.23;;;21.77;;
16462;SDS011;8342;42.736;23.292;2022-08-21T04:48:01;28.67;;;21.33;;
16462;SDS011;8342;42.736;23.292;2022-08-21T04:50:30;28.60;;;20.77;;
16462;SDS011;8342;42.736;23.292;2022-08-21T04:53:00;28.93;;;20.23;;
16462;SDS011;8342;42.736;23.292;2022-08-21T04:55:27;27.77;;;20.60;;
16462;SDS011;8342;42.736;23.292;2022-08-21T04:57:54;26.13;;;20.57;;
16462;SDS011;8342;42.736;23.292;2022-08-21T05:00:22;23.30;;;17.50;;
16462;SDS011;8342;42.736;23.292;2022-08-21T05:02:49;27.40;;;17.67;;
16462;SDS011;8342;42.736;23.292;2022-08-21T05:05:22;27.53;;;19.57;;
16462;SDS011;8342;42.736;23.292;2022-08-21T05:07:49;29.13;;;20.20;;
16462;SDS011;8342;42.736;23.292;2022-08-21T05:10:17;25.87;;;17.23;;
16462;SDS011;8342;42.736;23.292;2022-08-21T05:12:44;23.77;;;16.23;;
16462;SDS011;8342;42.736;23.292;2022-08-21T05:15:11;22.03;;;15.83;;
16462;SDS011;8342;42.736;23.292;2022-08-21T05:17:39;23.70;;;17.97;;
16462;SDS011;8342;42.736;23.292;2022-08-21T05:20:06;22.97;;;16.57;;
16462;SDS011;8342;42.736;23.292;2022-08-21T05:22:35;22.20;;;17.23;;
16462;SDS011;8342;42.736;23.292;2022-08-21T05:25:02;20.57;;;15.30;;
16462;SDS011;8342;42.736;23.292;2022-08-21T05:27:30;25.10;;;17.00;;
16462;SDS011;8342;42.736;23.292;2022-08-21T05:29:56;19.47;;;14.30;;
16462;SDS011;8342;42.736;23.292;2022-08-21T05:32:23;21.37;;;13.87;;
16462;SDS011;8342;42.736;23.292;2022-08-21T05:34:52;20.43;;;14.97;;
16462;SDS011;8342;42.736;23.292;2022-08-21T05:37:19;24.67;;;14.97;;
16462;SDS011;8342;42.736;23.292;2022-08-21T05:39:48;26.53;;;16.47;;
16462;SDS011;8342;42.736;23.292;2022-08-21T05:42:14;20.53;;;16.10;;
16462;SDS011;8342;42.736;23.292;2022-08-21T05:44:41;28.40;;;17.77;;
16462;SDS011;8342;42.736;23.292;2022-08-21T05:47:09;26.77;;;15.73;;
16462;SDS011;8342;42.736;23.292;2022-08-21T05:49:37;22.90;;;16.33;;
16462;SDS011;8342;42.736;23.292;2022-08-21T05:52:04;22.17;;;15.73;;
16462;SDS011;8342;42.736;23.292;2022-08-21T05:54:31;22.87;;;16.93;;
16462;SDS011;8342;42.736;23.292;2022-08-21T05:56:59;24.30;;;17.50;;
16462;SDS011;8342;42.736;23.292;2022-08-21T05:59:25;24.73;;;18.00;;
16462;SDS011;8342;42.736;23.292;2022-08-21T06:01:52;28.50;;;19.20;;
16462;SDS011;8342;42.736;23.292;2022-08-21T06:04:22;31.07;;;20.40;;
16462;SDS011;8342;42.736;23.292;2022-08-21T06:06:49;28.60;;;19.40;;
16462;SDS011;8342;42.736;23.292;2022-08-21T06:09:15;28.90;;;20.07;;
16462;SDS011;8342;42.736;23.292;2022-08-21T06:11:42;30.60;;;21.47;;
16462;SDS011;8342;42.736;23.292;2022-08-21T06:14:11;29.57;;;21.90;;
16462;SDS011;8342;42.736;23.292;2022-08-21T06:16:40;28.50;;;21.33;;
16462;SDS011;8342;42.736;23.292;2022-08-21T06:19:06;31.77;;;22.60;;
16462;SDS011;8342;42.736;23.292;2022-08-21T06:21:36;29.90;;;22.03;;
16462;SDS011;8342;42.736;23.292;2022-08-21T06:24:05;27.53;;;20.83;;
16462;SDS011;8342;42.736;23.292;2022-08-21T06:26:33;28.27;;;20.00;;
16462;SDS011;8342;42.736;23.292;2022-08-21T06:28:59;28.93;;;19.57;;
16462;SDS011;8342;42.736;23.292;2022-08-21T06:31:28;26.43;;;19.53;;
16462;SDS011;8342;42.736;23.292;2022-08-21T06:33:54;26.70;;;20.73;;
16462;SDS011;8342;42.736;23.292;2022-08-21T06:36:21;31.13;;;22.47;;
16462;SDS011;8342;42.736;23.292;2022-08-21T06:38:48;24.63;;;18.90;;
16462;SDS011;8342;42.736;23.292;2022-08-21T06:41:15;25.50;;;19.37;;
16462;SDS011;8342;42.736;23.292;2022-08-21T06:43:42;24.53;;;19.67;;
16462;SDS011;8342;42.736;23.292;2022-08-21T06:46:09;29.23;;;18.80;;
16462;SDS011;8342;42.736;23.292;2022-08-21T06:48:37;27.13;;;18.33;;
16462;SDS011;8342;42.736;23.292;2022-08-21T06:51:04;24.83;;;16.27;;
16462;SDS011;8342;42.736;23.292;2022-08-21T06:53:31;23.40;;;14.90;;
16462;SDS011;8342;42.736;23.292;2022-08-21T06:55:57;21.57;;;16.47;;
16462;SDS011;8342;42.736;23.292;2022-08-21T06:58:24;20.10;;;16.23;;
16462;SDS011;8342;42.736;23.292;2022-08-21T07:00:51;23.27;;;14.93;;
16462;SDS011;8342;42.736;23.292;2022-08-21T07:03:19;20.00;;;13.27;;
16462;SDS011;8342;42.736;23.292;2022-08-21T07:05:48;29.30;;;17.07;;
16462;SDS011;8342;42.736;23.292;2022-08-21T07:08:15;26.37;;;16.57;;
16462;SDS011;8342;42.736;23.292;2022-08-21T07:10:43;20.93;;;15.23;;
16462;SDS011;8342;42.736;23.292;2022-08-21T07:13:10;18.13;;;14.27;;
16462;SDS011;8342;42.736;23.292;2022-08-21T07:15:37;22.13;;;15.00;;
16462;SDS011;8342;42.736;23.292;2022-08-21T07:18:04;23.90;;;15.67;;
16462;SDS011;8342;42.736;23.292;2022-08-21T07:20:31;23.70;;;18.63;;
16462;SDS011;8342;42.736;23.292;2022-08-21T07:23:01;22.23;;;15.43;;
16462;SDS011;8342;42.736;23.292;2022-08-21T07:25:29;20.57;;;15.07;;
16462;SDS011;8342;42.736;23.292;2022-08-21T07:27:56;20.20;;;14.73;;
16462;SDS011;8342;42.736;23.292;2022-08-21T07:30:23;17.10;;;14.63;;
16462;SDS011;8342;42.736;23.292;2022-08-21T07:32:50;36.77;;;16.23;;
16462;SDS011;8342;42.736;23.292;2022-08-21T07:35:17;20.57;;;15.50;;
16462;SDS011;8342;42.736;23.292;2022-08-21T07:37:44;20.10;;;14.73;;
16462;SDS011;8342;42.736;23.292;2022-08-21T07:40:12;19.63;;;13.83;;
16462;SDS011;8342;42.736;23.292;2022-08-21T07:42:40;20.47;;;14.17;;
16462;SDS011;8342;42.736;23.292;2022-08-21T07:45:07;19.33;;;14.93;;
16462;SDS011;8342;42.736;23.292;2022-08-21T07:47:35;17.77;;;12.23;;
16462;SDS011;8342;42.736;23.292;2022-08-21T07:50:03;15.37;;;11.97;;
16462;SDS011;8342;42.736;23.292;2022-08-21T07:52:31;17.37;;;12.33;;
16462;SDS011;8342;42.736;23.292;2022-08-21T07:54:58;14.63;;;10.93;;
16462;SDS011;8342;42.736;23.292;2022-08-21T07:57:27;17.67;;;12.23;;
16462;SDS011;8342;42.736;23.292;2022-08-21T07:59:53;15.57;;;12.50;;
16462;SDS011;8342;42.736;23.292;2022-08-21T08:02:21;17.63;;;11.73;;
16462;SDS011;8342;42.736;23.292;2022-08-21T08:04:49;17.87;;;11.77;;
16462;SDS011;8342;42.736;23.292;2022-08-21T08:07:16;16.17;;;11.83;;
16462;SDS011;8342;42.736;23.292;2022-08-21T08:09:44;15.93;;;11.87;;
16462;SDS011;8342;42.736;23.292;2022-08-21T08:15:00;15.63;;;11.77;;
16462;SDS011;8342;42.736;23.292;2022-08-21T08:17:27;17.90;;;12.53;;
16462;SDS011;8342;42.736;23.292;2022-08-21T08:19:57;19.67;;;12.43;;
16462;SDS011;8342;42.736;23.292;2022-08-21T08:22:27;18.23;;;13.27;;
16462;SDS011;8342;42.736;23.292;2022-08-21T08:24:54;16.00;;;12.40;;
16462;SDS011;8342;42.736;23.292;2022-08-21T08:27:22;15.50;;;11.97;;
16462;SDS011;8342;42.736;23.292;2022-08-21T08:29:50;15.37;;;12.47;;
16462;SDS011;8342;42.736;23.292;2022-08-21T08:32:17;15.33;;;11.73;;
16462;SDS011;8342;42.736;23.292;2022-08-21T08:34:44;15.57;;;11.73;;
16462;SDS011;8342;42.736;23.292;2022-08-21T08:37:11;16.57;;;11.83;;
16462;SDS011;8342;42.736;23.292;2022-08-21T08:39:38;14.73;;;12.33;;
16462;SDS011;8342;42.736;23.292;2022-08-21T08:42:07;19.07;;;12.10;;
16462;SDS011;8342;42.736;23.292;2022-08-21T08:44:36;14.50;;;11.43;;
16462;SDS011;8342;42.736;23.292;2022-08-21T08:47:04;19.30;;;11.60;;
16462;SDS011;8342;42.736;23.292;2022-08-21T08:49:34;15.10;;;12.00;;
16462;SDS011;8342;42.736;23.292;2022-08-21T08:52:05;15.00;;;11.43;;
16462;SDS011;8342;42.736;23.292;2022-08-21T08:54:39;16.43;;;10.97;;
16462;SDS011;8342;42.736;23.292;2022-08-21T08:57:16;14.70;;;11.30;;
16462;SDS011;8342;42.736;23.292;2022-08-21T08:59:44;16.83;;;11.23;;
16462;SDS011;8342;42.736;23.292;2022-08-21T09:02:16;17.40;;;13.03;;
16462;SDS011;8342;42.736;23.292;2022-08-21T09:04:45;16.67;;;11.63;;
16462;SDS011;8342;42.736;23.292;2022-08-21T09:07:16;16.53;;;10.63;;
16462;SDS011;8342;42.736;23.292;2022-08-21T09:09:55;15.30;;;10.87;;
16462;SDS011;8342;42.736;23.292;2022-08-21T09:12:33;14.20;;;11.20;;
16462;SDS011;8342;42.736;23.292;2022-08-21T09:15:06;13.33;;;10.60;;
16462;SDS011;8342;42.736;23.292;2022-08-21T09:17:44;14.97;;;11.50;;
16462;SDS011;8342;42.736;23.292;2022-08-21T09:20:22;16.33;;;11.30;;
16462;SDS011;8342;42.736;23.292;2022-08-21T09:22:58;13.50;;;10.67;;
16462;SDS011;8342;42.736;23.292;2022-08-21T09:25:32;12.43;;;10.03;;
16462;SDS011;8342;42.736;23.292;2022-08-21T09:28:00;19.37;;;10.07;;
16462;SDS011;8342;42.736;23.292;2022-08-21T09:30:28;12.77;;;8.63;;
16462;SDS011;8342;42.736;23.292;2022-08-21T09:32:58;12.27;;;8.60;;
16462;SDS011;8342;42.736;23.292;2022-08-21T09:35:25;11.57;;;9.20;;
16462;SDS011;8342;42.736;23.292;2022-08-21T09:37:52;13.87;;;9.43;;
16462;SDS011;8342;42.736;23.292;2022-08-21T09:40:25;12.70;;;7.70;;
16462;SDS011;8342;42.736;23.292;2022-08-21T09:42:57;10.57;;;6.70;;
16462;SDS011;8342;42.736;23.292;2022-08-21T09:45:25;10.43;;;6.97;;
16462;SDS011;8342;42.736;23.292;2022-08-21T09:47:53;8.70;;;6.63;;
16462;SDS011;8342;42.736;23.292;2022-08-21T09:50:22;14.53;;;6.47;;
16462;SDS011;8342;42.736;23.292;2022-08-21T09:52:51;12.07;;;7.57;;
16462;SDS011;8342;42.736;23.292;2022-08-21T09:55:21;10.30;;;6.70;;
16462;SDS011;8342;42.736;23.292;2022-08-21T09:58:12;9.77;;;6.33;;
16462;SDS011;8342;42.736;23.292;2022-08-21T10:00:41;12.33;;;7.20;;
16462;SDS011;8342;42.736;23.292;2022-08-21T10:03:13;10.60;;;7.00;;
16462;SDS011;8342;42.736;23.292;2022-08-21T10:05:51;11.70;;;6.50;;
16462;SDS011;8342;42.736;23.292;2022-08-21T10:08:22;8.93;;;7.10;;
16462;SDS011;8342;42.736;23.292;2022-08-21T10:10:52;12.37;;;7.20;;
16462;SDS011;8342;42.736;23.292;2022-08-21T10:13:24;13.27;;;7.47;;
16462;SDS011;8342;42.736;23.292;2022-08-21T10:15:58;10.20;;;6.40;;
16462;SDS011;8342;42.736;23.292;2022-08-21T10:18:33;9.27;;;7.73;;
16462;SDS011;8342;42.736;23.292;2022-08-21T10:21:07;11.47;;;6.30;;
16462;SDS011;8342;42.736;23.292;2022-08-21T10:23:40;8.03;;;6.03;;
16462;SDS011;8342;42.736;23.292;2022-08-21T10:26:18;9.30;;;7.10;;
16462;SDS011;8342;42.736;23.292;2022-08-21T10:28:54;9.47;;;6.37;;
16462;SDS011;8342;42.736;23.292;2022-08-21T10:31:39;10.00;;;6.67;;
16462;SDS011;8342;42.736;23.292;2022-08-21T10:34:13;9.77;;;6.83;;
16462;SDS011;8342;42.736;23.292;2022-08-21T10:36:58;8.43;;;6.63;;
16462;SDS011;8342;42.736;23.292;2022-08-21T10:39:40;12.57;;;7.03;;
16462;SDS011;8342;42.736;23.292;2022-08-21T10:42:17;8.40;;;7.30;;
16462;SDS011;8342;42.736;23.292;2022-08-21T10:44:52;7.73;;;6.70;;
16462;SDS011;8342;42.736;23.292;2022-08-21T10:47:28;9.67;;;7.73;;
16462;SDS011;8342;42.736;23.292;2022-08-21T10:50:02;8.83;;;7.73;;
16462;SDS011;8342;42.736;23.292;2022-08-21T10:52:40;8.23;;;7.03;;
16462;SDS011;8342;42.736;23.292;2022-08-21T10:55:14;10.00;;;6.53;;
16462;SDS011;8342;42.736;23.292;2022-08-21T10:57:46;10.50;;;7.47;;
16462;SDS011;8342;42.736;23.292;2022-08-21T11:00:17;9.60;;;7.10;;
16462;SDS011;8342;42.736;23.292;2022-08-21T11:02:47;13.03;;;8.10;;
16462;SDS011;8342;42.736;23.292;2022-08-21T11:05:17;7.27;;;6.50;;
16462;SDS011;8342;42.736;23.292;2022-08-21T11:07:47;10.73;;;6.53;;
16462;SDS011;8342;42.736;23.292;2022-08-21T11:10:17;10.57;;;6.50;;
16462;SDS011;8342;42.736;23.292;2022-08-21T11:12:48;9.00;;;6.70;;
16462;SDS011;8342;42.736;23.292;2022-08-21T11:15:24;7.40;;;6.33;;
16462;SDS011;8342;42.736;23.292;2022-08-21T11:17:58;10.57;;;6.97;;
16462;SDS011;8342;42.736;23.292;2022-08-21T11:20:30;10.63;;;6.97;;
16462;SDS011;8342;42.736;23.292;2022-08-21T11:23:03;9.03;;;6.40;;
16462;SDS011;8342;42.736;23.292;2022-08-21T11:25:39;9.10;;;6.60;;
16462;SDS011;8342;42.736;23.292;2022-08-21T11:28:09;11.23;;;6.97;;
16462;SDS011;8342;42.736;23.292;2022-08-21T11:30:40;6.83;;;5.77;;
16462;SDS011;8342;42.736;23.292;2022-08-21T11:33:17;7.97;;;6.77;;
16462;SDS011;8342;42.736;23.292;2022-08-21T11:35:55;10.40;;;6.47;;
16462;SDS011;8342;42.736;23.292;2022-08-21T11:38:33;9.40;;;7.37;;
16462;SDS011;8342;42.736;23.292;2022-08-21T11:41:11;9.13;;;6.40;;
16462;SDS011;8342;42.736;23.292;2022-08-21T11:43:45;10.43;;;6.33;;
16462;SDS011;8342;42.736;23.292;2022-08-21T11:46:20;7.03;;;5.60;;
16462;SDS011;8342;42.736;23.292;2022-08-21T11:51:44;8.27;;;6.00;;
16462;SDS011;8342;42.736;23.292;2022-08-21T11:54:20;9.23;;;5.97;;
16462;SDS011;8342;42.736;23.292;2022-08-21T11:56:51;11.63;;;5.97;;
16462;SDS011;8342;42.736;23.292;2022-08-21T11:59:22;9.70;;;6.60;;
16462;SDS011;8342;42.736;23.292;2022-08-21T12:01:53;10.00;;;6.27;;
16462;SDS011;8342;42.736;23.292;2022-08-21T12:04:23;9.20;;;6.87;;
16462;SDS011;8342;42.736;23.292;2022-08-21T12:06:52;9.53;;;6.27;;
16462;SDS011;8342;42.736;23.292;2022-08-21T12:09:34;8.13;;;5.10;;
16462;SDS011;8342;42.736;23.292;2022-08-21T12:12:04;6.43;;;5.13;;
16462;SDS011;8342;42.736;23.292;2022-08-21T12:14:36;8.57;;;5.47;;
16462;SDS011;8342;42.736;23.292;2022-08-21T12:17:17;9.60;;;6.27;;
16462;SDS011;8342;42.736;23.292;2022-08-21T12:19:45;7.30;;;5.87;;
16462;SDS011;8342;42.736;23.292;2022-08-21T12:22:22;7.30;;;5.70;;
16462;SDS011;8342;42.736;23.292;2022-08-21T12:25:05;12.57;;;6.27;;
16462;SDS011;8342;42.736;23.292;2022-08-21T12:27:41;10.03;;;6.40;;
16462;SDS011;8342;42.736;23.292;2022-08-21T12:30:19;10.30;;;6.20;;
16462;SDS011;8342;42.736;23.292;2022-08-21T12:32:54;11.20;;;6.60;;
16462;SDS011;8342;42.736;23.292;2022-08-21T12:35:23;11.87;;;6.50;;
16462;SDS011;8342;42.736;23.292;2022-08-21T12:37:52;8.90;;;6.27;;
16462;SDS011;8342;42.736;23.292;2022-08-21T12:40:25;8.97;;;6.97;;
16462;SDS011;8342;42.736;23.292;2022-08-21T12:42:55;9.77;;;6.90;;
16462;SDS011;8342;42.736;23.292;2022-08-21T12:45:26;7.77;;;6.77;;
16462;SDS011;8342;42.736;23.292;2022-08-21T12:47:56;7.50;;;6.47;;
16462;SDS011;8342;42.736;23.292;2022-08-21T12:50:26;7.77;;;6.70;;
16462;SDS011;8342;42.736;23.292;2022-08-21T12:52:59;6.97;;;6.27;;
16462;SDS011;8342;42.736;23.292;2022-08-21T12:55:30;8.13;;;6.30;;
16462;SDS011;8342;42.736;23.292;2022-08-21T12:57:58;10.60;;;6.80;;
16462;SDS011;8342;42.736;23.292;2022-08-21T13:00:26;7.40;;;6.67;;
16462;SDS011;8342;42.736;23.292;2022-08-21T13:02:55;10.70;;;7.43;;
16462;SDS011;8342;42.736;23.292;2022-08-21T13:05:25;8.23;;;6.50;;
16462;SDS011;8342;42.736;23.292;2022-08-21T13:07:54;8.57;;;6.90;;
16462;SDS011;8342;42.736;23.292;2022-08-21T13:10:22;11.80;;;6.77;;
16462;SDS011;8342;42.736;23.292;2022-08-21T13:12:52;10.63;;;6.80;;
16462;SDS011;8342;42.736;23.292;2022-08-21T13:15:22;9.33;;;6.73;;
16462;SDS011;8342;42.736;23.292;2022-08-21T13:17:52;10.47;;;6.60;;
16462;SDS011;8342;42.736;23.292;2022-08-21T13:20:21;7.50;;;6.20;;
16462;SDS011;8342;42.736;23.292;2022-08-21T13:22:50;9.03;;;6.57;;
16462;SDS011;8342;42.736;23.292;2022-08-21T13:25:18;12.10;;;6.57;;
16462;SDS011;8342;42.736;23.292;2022-08-21T13:27:58;10.17;;;5.57;;
16462;SDS011;8342;42.736;23.292;2022-08-21T13:30:27;8.33;;;6.30;;
16462;SDS011;8342;42.736;23.292;2022-08-21T13:32:56;9.77;;;6.37;;
16462;SDS011;8342;42.736;23.292;2022-08-21T13:35:26;10.40;;;6.37;;
16462;SDS011;8342;42.736;23.292;2022-08-21T13:37:53;8.67;;;5.87;;
16462;SDS011;8342;42.736;23.292;2022-08-21T13:40:23;7.03;;;6.10;;
16462;SDS011;8342;42.736;23.292;2022-08-21T13:42:52;8.53;;;6.90;;
16462;SDS011;8342;42.736;23.292;2022-08-21T13:45:23;12.13;;;6.33;;
16462;SDS011;8342;42.736;23.292;2022-08-21T13:47:52;8.97;;;6.77;;
16462;SDS011;8342;42.736;23.292;2022-08-21T13:50:20;10.93;;;6.97;;
16462;SDS011;8342;42.736;23.292;2022-08-21T13:52:53;10.87;;;6.60;;
16462;SDS011;8342;42.736;23.292;2022-08-21T13:55:23;7.40;;;6.10;;
16462;SDS011;8342;42.736;23.292;2022-08-21T13:57:58;8.13;;;6.23;;
16462;SDS011;8342;42.736;23.292;2022-08-21T14:00:29;7.57;;;5.60;;
16462;SDS011;8342;42.736;23.292;2022-08-21T14:03:00;10.63;;;6.00;;
16462;SDS011;8342;42.736;23.292;2022-08-21T14:05:31;6.53;;;5.60;;
16462;SDS011;8342;42.736;23.292;2022-08-21T14:08:01;7.07;;;5.30;;
16462;SDS011;8342;42.736;23.292;2022-08-21T14:10:30;7.60;;;6.07;;
16462;SDS011;8342;42.736;23.292;2022-08-21T14:12:58;12.57;;;6.20;;
16462;SDS011;8342;42.736;23.292;2022-08-21T14:15:29;7.27;;;6.10;;
16462;SDS011;8342;42.736;23.292;2022-08-21T14:18:07;7.77;;;6.97;;
16462;SDS011;8342;42.736;23.292;2022-08-21T14:20:36;6.83;;;5.70;;
16462;SDS011;8342;42.736;23.292;2022-08-21T14:23:03;8.27;;;6.40;;
16462;SDS011;8342;42.736;23.292;2022-08-21T14:25:35;8.67;;;6.27;;
16462;SDS011;8342;42.736;23.292;2022-08-21T14:28:18;8.63;;;5.80;;
16462;SDS011;8342;42.736;23.292;2022-08-21T14:30:47;9.73;;;6.40;;
16462;SDS011;8342;42.736;23.292;2022-08-21T14:33:18;6.60;;;5.00;;
16462;SDS011;8342;42.736;23.292;2022-08-21T14:35:49;6.97;;;5.53;;
16462;SDS011;8342;42.736;23.292;2022-08-21T14:38:16;8.13;;;5.77;;
16462;SDS011;8342;42.736;23.292;2022-08-21T14:40:44;7.77;;;5.43;;
16462;SDS011;8342;42.736;23.292;2022-08-21T14:43:13;7.63;;;6.23;;
16462;SDS011;8342;42.736;23.292;2022-08-21T14:45:40;8.30;;;6.07;;
16462;SDS011;8342;42.736;23.292;2022-08-21T14:48:10;10.47;;;6.83;;